Time;durP1;ratioP1;P1;durP2;ratioP2;P2;SDS_P1;SDS_P2;PMS_P1;PMS_P2;Temp;Humidity;BMP_temperature;BMP_pressure;BME280_temperature;BME280_humidity;BME280_pressure;Samples;Min_cycle;Max_cycle;Signal;HPM_P1;HPM_P2
2022/01/16 00:05:09;;;;;;;46.15;20.50;;;1.80;99.90;;;;;;5074945;28;20040;-79
2022/01/16 00:07:35;;;;;;;49.22;19.70;;;1.80;99.90;;;;;;5073755;28;20052;-79
2022/01/16 00:10:02;;;;;;;44.15;19.65;;;1.80;99.90;;;;;;5074384;28;20045;-78
2022/01/16 00:12:29;;;;;;;42.03;19.48;;;1.80;99.90;;;;;;5074222;28;20098;-78
2022/01/16 00:14:56;;;;;;;41.72;18.52;;;1.80;99.90;;;;;;5074287;28;20110;-78
2022/01/16 00:17:27;;;;;;;36.88;19.42;;;1.70;99.90;;;;;;5074697;28;20098;-76
2022/01/16 00:19:54;;;;;;;44.58;20.63;;;1.70;99.90;;;;;;5074811;28;20064;-79
2022/01/16 00:22:26;;;;;;;35.47;17.33;;;1.60;99.90;;;;;;5073290;28;20097;-79
2022/01/16 00:24:53;;;;;;;36.88;18.30;;;1.60;99.90;;;;;;5075825;28;20443;-78
2022/01/16 00:27:20;;;;;;;39.20;17.75;;;1.70;99.90;;;;;;5076450;28;20106;-79
2022/01/16 00:29:47;;;;;;;35.97;16.73;;;1.50;99.90;;;;;;5073658;28;20048;-79
2022/01/16 00:32:13;;;;;;;36.78;19.08;;;1.50;99.90;;;;;;5073513;28;20052;-79
2022/01/16 00:34:40;;;;;;;42.95;19.42;;;1.50;99.90;;;;;;5074074;28;20056;-78
2022/01/16 00:37:07;;;;;;;39.03;19.10;;;1.50;99.90;;;;;;5073331;28;20098;-79
2022/01/16 00:39:35;;;;;;;40.45;20.38;;;1.40;99.90;;;;;;5073586;28;20049;-79
2022/01/16 00:42:02;;;;;;;35.67;18.13;;;1.40;99.90;;;;;;5073277;28;20048;-78
2022/01/16 00:44:29;;;;;;;40.30;19.65;;;1.40;99.90;;;;;;5074337;28;20052;-77
2022/01/16 00:46:56;;;;;;;46.15;21.48;;;1.40;99.90;;;;;;5073595;28;20117;-78
2022/01/16 00:49:23;;;;;;;42.97;20.58;;;1.40;99.90;;;;;;5072867;28;20071;-78
2022/01/16 00:51:50;;;;;;;45.35;21.40;;;1.40;99.90;;;;;;5073098;28;20488;-79
2022/01/16 00:54:16;;;;;;;47.42;21.13;;;1.50;99.90;;;;;;5073592;28;20102;-78
2022/01/16 00:56:45;;;;;;;52.20;22.88;;;1.50;99.90;;;;;;5072955;28;20102;-76
2022/01/16 00:59:12;;;;;;;50.35;21.98;;;1.40;99.90;;;;;;5073333;28;20060;-78
2022/01/16 01:01:39;;;;;;;47.75;23.10;;;1.50;99.90;;;;;;5072855;28;20576;-78
2022/01/16 01:04:06;;;;;;;51.78;24.10;;;1.40;99.90;;;;;;5073086;28;20051;-78
2022/01/16 01:06:32;;;;;;;49.05;24.65;;;1.50;99.90;;;;;;5073553;28;20431;-77
2022/01/16 01:08:59;;;;;;;51.70;23.77;;;1.50;99.90;;;;;;5073689;28;20427;-78
2022/01/16 01:11:28;;;;;;;62.88;25.75;;;1.50;99.90;;;;;;5072702;28;20040;-78
2022/01/16 01:16:50;;;;;;;62.65;27.02;;;1.50;99.90;;;;;;5069445;28;20137;-78
2022/01/16 01:19:17;;;;;;;51.50;23.35;;;1.50;99.90;;;;;;5072739;28;20045;-78
2022/01/16 01:21:44;;;;;;;60.25;25.40;;;1.50;99.90;;;;;;5072849;28;20040;-79
2022/01/16 01:24:11;;;;;;;53.13;25.98;;;1.50;99.90;;;;;;5073176;28;20408;-78
2022/01/16 01:26:47;;;;;;;56.85;28.88;;;1.50;99.90;;;;;;5073088;28;20118;-78
2022/01/16 01:29:18;;;;;;;55.40;26.15;;;1.50;99.90;;;;;;5073142;28;20122;-78
2022/01/16 01:31:45;;;;;;;53.38;25.40;;;1.60;99.90;;;;;;5072252;28;20492;-79
2022/01/16 01:34:12;;;;;;;52.63;24.65;;;1.60;99.90;;;;;;5073575;28;20052;-79
2022/01/16 01:36:39;;;;;;;57.42;26.05;;;1.60;99.90;;;;;;5073564;28;20056;-78
2022/01/16 01:39:05;;;;;;;51.92;25.23;;;1.60;99.90;;;;;;5072514;28;20556;-79
2022/01/16 01:41:32;;;;;;;56.42;25.55;;;1.90;99.90;;;;;;5073103;28;20106;-80
2022/01/16 01:52:16;;;;;;;52.08;25.33;;;1.60;99.90;;;;;;5072723;28;20083;-80
2022/01/16 01:54:43;;;;;;;55.88;26.10;;;1.60;99.90;;;;;;5072354;28;20049;-78
2022/01/16 01:57:11;;;;;;;58.40;27.88;;;1.60;99.90;;;;;;5074777;28;20131;-77
2022/01/16 01:59:39;;;;;;;56.55;27.10;;;1.60;99.90;;;;;;5072999;28;20450;-77
2022/01/16 02:02:08;;;;;;;56.00;27.35;;;1.60;99.90;;;;;;5074086;28;20048;-77
2022/01/16 02:04:35;;;;;;;54.63;27.48;;;1.60;99.90;;;;;;5076015;28;20048;-77
2022/01/16 02:07:02;;;;;;;54.22;25.70;;;1.60;99.90;;;;;;5075511;28;20052;-76
2022/01/16 02:09:29;;;;;;;59.30;27.33;;;1.80;99.90;;;;;;5076547;28;20048;-77
2022/01/16 02:11:56;;;;;;;55.15;25.55;;;1.60;99.90;;;;;;5075260;28;20469;-77
2022/01/16 02:14:30;;;;;;;58.40;27.00;;;1.70;99.90;;;;;;5075999;28;20048;-77
2022/01/16 02:28:08;;;;;;;62.60;26.70;;;1.60;99.90;;;;;;5071848;28;20079;-78
2022/01/16 02:36:02;;;;;;;62.20;27.70;;;1.80;99.90;;;;;;5081405;28;20091;-80
2022/01/16 02:38:30;;;;;;;64.70;28.30;;;1.60;99.90;;;;;;5079332;28;20044;-77
2022/01/16 02:41:01;;;;;;;71.80;30.40;;;1.60;99.90;;;;;;5073762;28;20056;-78
2022/01/16 02:43:31;;;;;;;;;;;1.60;99.90;;;;;;5071878;28;20084;-79
2022/01/16 02:46:35;;;;;;;70.65;28.27;;;1.60;99.90;;;;;;5074580;28;19926;-78
2022/01/16 02:48:56;;;;;;;78.80;29.50;;;1.60;99.90;;;;;;5075199;28;20071;-78
2022/01/16 02:51:26;;;;;;;78.63;30.52;;;1.60;99.90;;;;;;5075987;28;20430;-78
2022/01/16 02:53:54;;;;;;;72.90;29.02;;;1.60;99.90;;;;;;5075635;28;20044;-79
2022/01/16 02:56:22;;;;;;;76.10;29.80;;;1.60;99.90;;;;;;5076481;28;20048;-78
2022/01/16 02:58:50;;;;;;;72.32;27.35;;;1.60;99.90;;;;;;5075250;28;20110;-78
2022/01/16 03:01:18;;;;;;;66.65;27.33;;;1.60;99.90;;;;;;5075678;28;20048;-78
2022/01/16 03:03:45;;;;;;;68.25;26.83;;;1.60;99.90;;;;;;5075697;28;20048;-77
2022/01/16 03:06:13;;;;;;;71.55;29.60;;;1.50;99.90;;;;;;5077841;28;20052;-79
2022/01/16 03:08:39;;;;;;;84.45;31.90;;;1.50;99.90;;;;;;5080079;28;20209;-80
2022/01/16 03:11:20;;;;;;;80.28;30.63;;;1.50;99.90;;;;;;5088819;28;20056;-79
2022/01/16 03:13:49;;;;;;;68.65;30.02;;;1.50;99.90;;;;;;5076680;28;20071;-79
2022/01/16 03:16:16;;;;;;;69.13;28.63;;;1.50;99.90;;;;;;5075691;28;20056;-79
2022/01/16 03:24:12;;;;;;;60.53;26.83;;;1.60;99.90;;;;;;5080986;28;20534;-78
2022/01/16 03:26:40;;;;;;;61.22;26.70;;;1.60;99.90;;;;;;5075666;28;20477;-79
2022/01/16 03:29:07;;;;;;;65.05;27.70;;;1.60;99.90;;;;;;5075062;28;20106;-79
2022/01/16 03:31:34;;;;;;;64.25;27.58;;;1.60;99.90;;;;;;5074969;28;20090;-79
2022/01/16 03:34:01;;;;;;;74.05;27.75;;;1.70;99.90;;;;;;5075132;28;20060;-78
2022/01/16 03:36:28;;;;;;;59.67;26.20;;;1.70;99.90;;;;;;5075161;28;20492;-78
2022/01/16 03:38:54;;;;;;;66.40;28.27;;;1.70;99.90;;;;;;5074063;28;20045;-77
2022/01/16 03:41:21;;;;;;;63.75;27.10;;;2.20;99.90;;;;;;5074032;28;20098;-77
2022/01/16 03:43:50;;;;;;;68.75;29.98;;;1.70;99.90;;;;;;5075019;28;20427;-77
2022/01/16 03:46:16;;;;;;;71.07;27.83;;;1.70;99.90;;;;;;5074299;28;20077;-78
2022/01/16 03:48:43;;;;;;;66.70;27.38;;;1.80;99.90;;;;;;5074833;28;20049;-78
2022/01/16 03:51:10;;;;;;;72.43;30.05;;;1.80;99.90;;;;;;5074521;28;20500;-78
2022/01/16 03:53:37;;;;;;;66.95;27.48;;;1.80;99.90;;;;;;5074270;28;20078;-77
2022/01/16 03:56:04;;;;;;;72.20;28.40;;;1.80;99.90;;;;;;5073850;28;20118;-77
2022/01/16 03:58:31;;;;;;;78.90;29.85;;;1.80;99.90;;;;;;5073979;28;20040;-76
2022/01/16 04:00:59;;;;;;;78.88;30.05;;;1.80;99.90;;;;;;5073602;28;20113;-76
2022/01/16 04:03:26;;;;;;;75.57;31.20;;;1.80;99.90;;;;;;5074108;28;20102;-76
2022/01/16 04:05:53;;;;;;;87.28;32.85;;;2.90;99.90;;;;;;5074377;28;20106;-75
2022/01/16 04:08:20;;;;;;;76.15;31.73;;;1.90;99.90;;;;;;5074578;28;20106;-77
2022/01/16 04:10:47;;;;;;;71.55;29.17;;;1.90;99.90;;;;;;5074469;28;20052;-76
2022/01/16 04:13:15;;;;;;;75.80;32.25;;;1.90;99.90;;;;;;5073858;28;20544;-76
2022/01/16 04:15:42;;;;;;;83.13;30.35;;;2.00;99.90;;;;;;5073976;28;20048;-76
2022/01/16 04:18:11;;;;;;;86.97;33.45;;;2.00;99.90;;;;;;5074224;28;20060;-76
2022/01/16 04:20:38;;;;;;;84.50;31.70;;;2.00;99.90;;;;;;5073746;28;20178;-76
2022/01/16 04:23:06;;;;;;;85.13;30.88;;;2.00;99.90;;;;;;5074295;28;20403;-76
2022/01/16 04:25:33;;;;;;;83.90;33.00;;;2.00;99.90;;;;;;5073827;28;20048;-77
2022/01/16 04:28:00;;;;;;;71.10;28.75;;;2.00;99.90;;;;;;5073123;28;20098;-76
2022/01/16 04:30:27;;;;;;;84.30;31.17;;;2.00;99.90;;;;;;5073825;28;20048;-76
2022/01/16 04:32:54;;;;;;;84.47;31.92;;;2.10;99.90;;;;;;5074126;28;20109;-76
2022/01/16 04:35:22;;;;;;;91.60;33.00;;;2.10;99.90;;;;;;5073235;28;20106;-76
2022/01/16 04:37:49;;;;;;;87.00;32.30;;;2.10;99.90;;;;;;5073836;28;20114;-75
2022/01/16 04:40:17;;;;;;;89.43;32.50;;;2.10;99.90;;;;;;5073754;28;20537;-75
2022/01/16 04:45:29;;;;;;;88.35;33.08;;;2.20;99.90;;;;;;5073759;28;20052;-76
2022/01/16 04:47:56;;;;;;;91.60;33.40;;;2.20;99.90;;;;;;5073585;28;20542;-76
2022/01/16 04:50:25;;;;;;;85.00;32.30;;;2.20;99.90;;;;;;5072700;28;20117;-75
2022/01/16 04:52:53;;;;;;;84.88;32.67;;;2.30;99.90;;;;;;5074006;28;20045;-76
2022/01/16 04:55:23;;;;;;;85.15;32.45;;;2.20;99.90;;;;;;5072663;28;20063;-76
2022/01/16 04:57:50;;;;;;;83.18;32.88;;;2.30;99.90;;;;;;5073372;28;20045;-77
2022/01/16 05:00:18;;;;;;;84.82;32.03;;;2.30;99.90;;;;;;5073027;28;20064;-77
2022/01/16 05:02:45;;;;;;;77.10;31.05;;;2.30;99.90;;;;;;5072541;28;20044;-78
2022/01/16 05:05:12;;;;;;;85.35;33.30;;;2.30;99.90;;;;;;5073148;28;20052;-77
2022/01/16 05:07:41;;;;;;;94.32;34.05;;;2.30;99.90;;;;;;5072958;28;20048;-77
2022/01/16 05:10:09;;;;;;;84.88;33.75;;;2.70;99.90;;;;;;5072222;28;20500;-78
2022/01/16 05:12:41;;;;;;;97.72;37.20;;;2.40;99.90;;;;;;5073408;28;20047;-78
2022/01/16 05:17:54;;;;;;;87.13;33.38;;;2.50;99.90;;;;;;5073032;28;20416;-77
2022/01/16 05:20:21;;;;;;;86.25;33.33;;;2.50;99.90;;;;;;5073123;28;20056;-77
2022/01/16 05:22:49;;;;;;;99.32;36.50;;;2.50;99.90;;;;;;5072760;28;20110;-79
2022/01/16 05:25:17;;;;;;;107.03;39.63;;;2.50;99.90;;;;;;5072090;28;20048;-77
2022/01/16 05:27:45;;;;;;;87.03;34.40;;;2.50;99.90;;;;;;5072956;28;20084;-78
2022/01/16 05:30:13;;;;;;;92.60;36.03;;;2.60;99.90;;;;;;5072442;28;20048;-77
2022/01/16 05:32:40;;;;;;;95.00;36.70;;;3.10;99.90;;;;;;5073264;28;20113;-79
2022/01/16 05:35:08;;;;;;;99.30;37.45;;;2.60;99.90;;;;;;5073816;28;20060;-78
2022/01/16 05:37:35;;;;;;;105.30;35.13;;;2.60;99.90;;;;;;5072648;28;20102;-78
2022/01/16 05:40:05;;;;;;;110.75;37.28;;;2.70;99.90;;;;;;5072750;28;20114;-78
2022/01/16 05:42:32;;;;;;;110.75;36.50;;;2.60;99.90;;;;;;5072134;28;20044;-78
2022/01/16 05:45:00;;;;;;;96.93;35.25;;;2.70;99.90;;;;;;5071845;28;20110;-78
2022/01/16 05:47:26;;;;;;;106.75;37.33;;;2.70;99.90;;;;;;5072579;28;20048;-77
2022/01/16 05:49:53;;;;;;;107.95;36.42;;;2.70;99.90;;;;;;5072384;28;20048;-77
2022/01/16 05:52:20;;;;;;;104.10;38.08;;;2.70;99.90;;;;;;5072073;28;20105;-77
2022/01/16 05:54:47;;;;;;;110.80;38.70;;;2.70;99.90;;;;;;5072325;28;20056;-76
2022/01/16 05:57:15;;;;;;;111.25;37.00;;;2.80;99.90;;;;;;5072550;28;20044;-77
2022/01/16 05:59:43;;;;;;;106.72;38.60;;;2.80;99.90;;;;;;5073848;28;20091;-76
2022/01/16 06:02:09;;;;;;;91.68;36.80;;;2.80;99.90;;;;;;5077337;28;20048;-77
2022/01/16 06:04:36;;;;;;;112.03;37.83;;;2.80;99.90;;;;;;5078134;28;20056;-77
2022/01/16 06:07:05;;;;;;;108.78;40.40;;;2.80;99.90;;;;;;5075570;28;20056;-77
2022/01/16 06:09:31;;;;;;;89.05;35.97;;;2.80;99.90;;;;;;5075887;28;20090;-78
2022/01/16 06:11:59;;;;;;;110.45;37.20;;;2.90;99.90;;;;;;5077027;28;20060;-78
2022/01/16 06:14:27;;;;;;;107.60;39.03;;;2.90;99.90;;;;;;5078620;28;20052;-77
2022/01/16 06:16:54;;;;;;;114.57;41.10;;;3.10;99.90;;;;;;5077560;28;20048;-79
2022/01/16 06:19:21;;;;;;;98.60;36.10;;;3.30;99.90;;;;;;5071360;28;20056;-78
2022/01/16 06:21:48;;;;;;;106.35;37.92;;;3.00;99.90;;;;;;5071135;28;20048;-78
2022/01/16 06:24:15;;;;;;;109.22;41.20;;;3.00;99.90;;;;;;5071766;28;20044;-78
2022/01/16 06:26:43;;;;;;;111.20;39.10;;;3.00;99.90;;;;;;5071670;28;20060;-77
2022/01/16 06:29:10;;;;;;;105.05;39.22;;;3.00;99.90;;;;;;5071364;28;20052;-77
2022/01/16 06:31:38;;;;;;;100.95;37.75;;;3.10;99.90;;;;;;5071807;28;20459;-78
2022/01/16 06:34:06;;;;;;;95.93;37.67;;;3.10;99.90;;;;;;5071980;28;20056;-77
2022/01/16 06:36:35;;;;;;;123.55;43.47;;;3.10;99.90;;;;;;5071881;28;20140;-78
2022/01/16 06:39:03;;;;;;;92.90;37.10;;;3.10;99.90;;;;;;5071441;28;20531;-77
2022/01/16 06:41:30;;;;;;;107.13;38.97;;;3.20;99.90;;;;;;5071657;28;20370;-78
2022/01/16 06:43:57;;;;;;;103.47;39.42;;;3.20;99.90;;;;;;5064532;28;20044;-76
2022/01/16 06:46:24;;;;;;;109.05;39.95;;;3.30;99.90;;;;;;5079369;28;20097;-77
2022/01/16 06:48:52;;;;;;;105.82;37.85;;;3.30;99.90;;;;;;5070945;28;20569;-76
2022/01/16 06:51:20;;;;;;;92.85;39.13;;;3.30;99.90;;;;;;5070485;28;20090;-74
2022/01/16 06:53:47;;;;;;;117.28;39.58;;;3.30;99.90;;;;;;5067188;28;20496;-73
2022/01/16 06:56:14;;;;;;;100.75;37.38;;;3.40;99.90;;;;;;5069402;28;20040;-75
2022/01/16 06:58:41;;;;;;;103.25;38.17;;;3.40;99.90;;;;;;5069891;28;20523;-75
2022/01/16 07:01:09;;;;;;;99.00;37.28;;;3.40;99.90;;;;;;5070282;28;20044;-75
2022/01/16 07:03:36;;;;;;;101.82;39.28;;;3.50;99.90;;;;;;5067393;28;20098;-73
2022/01/16 07:06:05;;;;;;;100.63;39.33;;;3.50;99.90;;;;;;5070514;28;20504;-76
2022/01/16 07:08:32;;;;;;;89.38;37.53;;;3.50;99.90;;;;;;5070532;28;20095;-77
2022/01/16 07:11:00;;;;;;;99.10;37.75;;;3.60;99.90;;;;;;5070135;28;20052;-77
2022/01/16 07:13:27;;;;;;;105.60;39.50;;;3.60;99.90;;;;;;5070543;28;20106;-76
2022/01/16 07:15:55;;;;;;;98.88;38.33;;;3.60;99.90;;;;;;5070039;28;20053;-76
2022/01/16 07:18:22;;;;;;;96.95;39.42;;;3.60;99.90;;;;;;5069788;28;20067;-76
2022/01/16 07:20:49;;;;;;;84.57;37.90;;;3.80;99.90;;;;;;5070599;28;20057;-77
2022/01/16 07:23:18;;;;;;;92.97;37.90;;;3.70;99.90;;;;;;5069646;28;20044;-76
2022/01/16 07:25:45;;;;;;;100.80;37.47;;;3.70;99.90;;;;;;5070485;28;20549;-74
2022/01/16 07:28:12;;;;;;;89.60;37.53;;;3.80;99.90;;;;;;5069044;28;20044;-75
2022/01/16 07:30:39;;;;;;;90.68;37.08;;;3.80;99.90;;;;;;5070119;28;20049;-77
2022/01/16 07:33:08;;;;;;;86.25;36.20;;;3.80;99.90;;;;;;5072757;28;20057;-77
2022/01/16 07:35:36;;;;;;;89.95;36.83;;;3.90;99.90;;;;;;5071175;28;20048;-78
2022/01/16 07:38:04;;;;;;;88.85;38.50;;;3.90;99.90;;;;;;5073476;28;20439;-78
2022/01/16 07:40:33;;;;;;;89.32;37.53;;;3.90;99.90;;;;;;5073542;28;20049;-76
2022/01/16 07:42:59;;;;;;;77.15;34.65;;;3.90;99.90;;;;;;5073218;28;20041;-76
2022/01/16 07:45:27;;;;;;;91.90;38.33;;;4.00;99.90;;;;;;5073110;28;20553;-77
2022/01/16 07:47:53;;;;;;;89.78;38.30;;;4.00;99.90;;;;;;5073487;28;20048;-76
2022/01/16 07:50:21;;;;;;;88.95;38.40;;;4.00;99.90;;;;;;5073579;28;20078;-76
2022/01/16 07:52:49;;;;;;;95.32;38.67;;;4.00;99.90;;;;;;5072858;28;20390;-75
2022/01/16 07:55:17;;;;;;;75.47;33.53;;;4.10;99.90;;;;;;5070928;28;20075;-76
2022/01/16 07:57:45;;;;;;;71.22;33.33;;;4.10;99.90;;;;;;5073105;28;20496;-74
2022/01/16 08:00:12;;;;;;;81.22;37.05;;;4.10;99.90;;;;;;5072572;28;20121;-75
2022/01/16 08:02:39;;;;;;;85.13;35.40;;;4.10;99.90;;;;;;5072978;28;20052;-74
2022/01/16 08:05:07;;;;;;;79.60;36.47;;;4.10;99.90;;;;;;5073470;28;20052;-77
2022/01/16 08:07:33;;;;;;;79.78;36.05;;;4.10;99.90;;;;;;5072557;28;20048;-74
2022/01/16 08:10:00;;;;;;;69.38;34.83;;;4.10;99.90;;;;;;5074342;28;20070;-74
2022/01/16 08:12:27;;;;;;;78.80;34.92;;;4.20;99.90;;;;;;5072533;28;20106;-76
2022/01/16 08:14:55;;;;;;;76.25;33.75;;;4.50;99.90;;;;;;5072896;28;20044;-76
2022/01/16 08:17:22;;;;;;;70.10;35.42;;;4.50;99.90;;;;;;5072464;28;20101;-74
2022/01/16 08:19:49;;;;;;;67.88;33.10;;;4.20;99.90;;;;;;5072487;28;20443;-75
2022/01/16 08:22:16;;;;;;;69.47;34.03;;;4.30;99.90;;;;;;5071179;28;20573;-77
2022/01/16 08:24:43;;;;;;;75.30;32.65;;;4.30;99.90;;;;;;5073662;28;20049;-75
2022/01/16 08:27:10;;;;;;;59.38;32.65;;;4.40;99.90;;;;;;5072859;28;20049;-76
2022/01/16 08:29:37;;;;;;;66.55;30.55;;;4.40;99.90;;;;;;5073794;28;20107;-76
2022/01/16 08:32:06;;;;;;;55.35;29.30;;;4.50;99.90;;;;;;5074382;28;20454;-73
2022/01/16 08:34:33;;;;;;;55.70;26.55;;;4.50;99.90;;;;;;5076136;28;20041;-73
2022/01/16 08:37:00;;;;;;;48.63;25.85;;;4.60;99.90;;;;;;5090395;28;20066;-73
2022/01/16 08:39:27;;;;;;;52.28;27.25;;;4.60;99.90;;;;;;5077319;28;20052;-74
2022/01/16 08:41:54;;;;;;;49.90;24.95;;;4.70;99.90;;;;;;5071995;28;20135;-73
2022/01/16 08:44:21;;;;;;;48.30;26.30;;;4.80;99.90;;;;;;5074008;28;20045;-74
2022/01/16 08:46:49;;;;;;;41.63;24.42;;;4.80;99.90;;;;;;5073864;28;20110;-75
2022/01/16 08:49:17;;;;;;;51.20;25.83;;;5.60;99.90;;;;;;5074025;28;20061;-75
2022/01/16 08:51:44;;;;;;;45.42;26.77;;;5.00;99.90;;;;;;5072841;28;20094;-74
2022/01/16 08:54:11;;;;;;;48.00;25.35;;;5.00;99.90;;;;;;5073886;28;20048;-74
2022/01/16 08:56:37;;;;;;;41.45;23.45;;;5.00;99.90;;;;;;5073983;28;20049;-74
2022/01/16 08:59:04;;;;;;;45.75;24.02;;;5.10;99.90;;;;;;5073432;28;20098;-75
2022/01/16 09:01:31;;;;;;;46.03;25.17;;;5.10;99.90;;;;;;5073797;28;20052;-74
2022/01/16 09:03:58;;;;;;;44.30;24.00;;;5.10;99.90;;;;;;5072619;28;20110;-74
2022/01/16 09:06:27;;;;;;;40.38;22.20;;;5.20;99.90;;;;;;5074205;28;20057;-75
2022/01/16 09:08:54;;;;;;;40.30;23.75;;;5.30;99.90;;;;;;5073084;28;20056;-74
2022/01/16 09:11:25;;;;;;;40.42;23.42;;;5.30;99.90;;;;;;5074613;28;20060;-74
2022/01/16 09:13:52;;;;;;;38.78;23.33;;;5.40;99.90;;;;;;5075062;28;20131;-74
2022/01/16 09:16:20;;;;;;;47.38;23.60;;;5.50;99.90;;;;;;5073157;28;20189;-74
2022/01/16 09:18:47;;;;;;;38.95;23.00;;;5.40;99.90;;;;;;5073037;28;20522;-75
2022/01/16 09:21:14;;;;;;;42.95;22.83;;;5.50;99.90;;;;;;5075085;28;20048;-74
2022/01/16 09:23:42;;;;;;;38.72;22.38;;;5.50;99.90;;;;;;5073099;28;20084;-74
2022/01/16 09:26:09;;;;;;;36.25;21.25;;;5.60;99.90;;;;;;5074750;28;20074;-74
2022/01/16 09:28:36;;;;;;;39.97;22.65;;;5.60;99.90;;;;;;5073372;28;20056;-75
2022/01/16 09:31:04;;;;;;;39.75;21.92;;;5.70;99.90;;;;;;5073260;28;20053;-74
2022/01/16 09:33:31;;;;;;;36.03;21.73;;;5.70;99.90;;;;;;5073408;28;20055;-74
2022/01/16 09:35:58;;;;;;;39.72;20.52;;;5.80;99.90;;;;;;5073781;28;20113;-73
2022/01/16 09:38:26;;;;;;;38.67;22.67;;;5.70;99.90;;;;;;5073751;28;20048;-73
2022/01/16 09:40:55;;;;;;;41.25;19.95;;;5.70;99.90;;;;;;5072887;28;20044;-73
2022/01/16 09:43:22;;;;;;;33.50;20.90;;;5.70;99.90;;;;;;5074940;28;20049;-72
2022/01/16 09:45:51;;;;;;;39.90;21.50;;;5.80;99.90;;;;;;5075253;28;20126;-74
2022/01/16 09:48:19;;;;;;;36.88;21.73;;;5.80;99.90;;;;;;5074906;28;20052;-73
2022/01/16 09:50:46;;;;;;;40.78;22.67;;;5.80;99.90;;;;;;5072343;28;20508;-74
2022/01/16 09:53:13;;;;;;;37.90;21.00;;;5.90;99.90;;;;;;5072018;28;20060;-74
2022/01/16 09:55:40;;;;;;;31.27;20.05;;;5.80;99.90;;;;;;5071303;28;20547;-74
2022/01/16 09:58:09;;;;;;;33.83;20.23;;;5.90;99.90;;;;;;5071296;28;20106;-75
2022/01/16 10:00:36;;;;;;;33.90;20.27;;;5.90;99.90;;;;;;5072259;28;20049;-74
2022/01/16 10:03:05;;;;;;;38.53;20.17;;;6.00;99.90;;;;;;5071833;28;20063;-74
2022/01/16 10:05:34;;;;;;;40.10;20.90;;;6.30;99.90;;;;;;5071416;28;20045;-74
2022/01/16 10:08:03;;;;;;;39.15;20.77;;;6.10;99.90;;;;;;5072349;28;20094;-74
2022/01/16 10:10:31;;;;;;;37.53;21.50;;;6.20;99.90;;;;;;5072801;28;20052;-74
2022/01/16 10:13:06;;;;;;;33.38;19.58;;;6.10;99.90;;;;;;5071539;28;20401;-74
2022/01/16 10:15:35;;;;;;;35.08;19.90;;;6.20;99.90;;;;;;5071954;28;20135;-73
2022/01/16 10:18:06;;;;;;;36.38;20.02;;;6.20;99.90;;;;;;5072033;28;20488;-74
2022/01/16 10:20:41;;;;;;;;;;;6.20;99.90;;;;;;5072238;28;20112;-73
2022/01/16 10:23:16;;;;;;;32.38;19.10;;;6.20;99.90;;;;;;5071793;28;20371;-74
2022/01/16 10:25:45;;;;;;;36.33;18.20;;;6.30;99.90;;;;;;5073076;28;20056;-74
2022/01/16 10:28:15;;;;;;;32.30;18.02;;;6.30;99.90;;;;;;5072033;28;20087;-74
2022/01/16 10:30:45;;;;;;;34.40;19.90;;;6.40;99.90;;;;;;5072187;28;20057;-75
2022/01/16 10:33:13;;;;;;;34.22;18.35;;;6.40;99.90;;;;;;5071424;28;20044;-75
2022/01/16 10:35:41;;;;;;;32.47;18.30;;;6.40;99.90;;;;;;5072861;28;20500;-75
2022/01/16 10:38:11;;;;;;;25.88;16.88;;;6.40;99.90;;;;;;5071613;28;20492;-74
2022/01/16 10:40:40;;;;;;;38.58;18.83;;;6.70;99.90;;;;;;5071018;28;20052;-74
2022/01/16 10:43:13;;;;;;;31.17;18.10;;;6.50;99.90;;;;;;5071597;28;20511;-74
2022/01/16 10:45:43;;;;;;;33.53;18.30;;;6.50;99.90;;;;;;5071446;28;20500;-74
2022/01/16 10:48:12;;;;;;;34.40;17.95;;;6.60;99.90;;;;;;5071189;28;20063;-74
2022/01/16 10:50:41;;;;;;;32.33;16.70;;;6.60;99.90;;;;;;5073083;28;20408;-73
2022/01/16 10:53:12;;;;;;;32.25;17.83;;;6.70;99.90;;;;;;5072726;28;20056;-74
2022/01/16 10:55:41;;;;;;;25.55;16.27;;;6.60;99.90;;;;;;5071551;28;20098;-74
2022/01/16 10:58:12;;;;;;;33.55;18.00;;;6.70;99.90;;;;;;5074689;28;20147;-75
2022/01/16 11:00:42;;;;;;;28.15;16.55;;;6.70;99.90;;;;;;5071347;28;20482;-75
2022/01/16 11:03:12;;;;;;;29.95;16.38;;;6.70;99.90;;;;;;5071126;28;20458;-75
2022/01/16 11:05:43;;;;;;;25.38;15.48;;;6.70;99.90;;;;;;5071832;28;20064;-74
2022/01/16 11:08:12;;;;;;;28.37;16.37;;;6.70;99.90;;;;;;5074970;28;20139;-74
2022/01/16 11:10:41;;;;;;;35.38;16.10;;;6.70;99.90;;;;;;5075206;28;20297;-75
2022/01/16 11:13:10;;;;;;;29.77;15.77;;;6.70;99.90;;;;;;5075163;28;20060;-75
2022/01/16 11:15:39;;;;;;;25.85;14.57;;;6.80;99.90;;;;;;5074467;28;20094;-74
2022/01/16 11:18:08;;;;;;;27.45;14.30;;;6.70;99.90;;;;;;5076361;28;20494;-75
2022/01/16 11:20:38;;;;;;;36.35;16.25;;;6.80;99.90;;;;;;5075260;28;20114;-75
2022/01/16 11:23:13;;;;;;;26.27;15.20;;;6.80;99.90;;;;;;5074705;28;20138;-75
2022/01/16 11:25:42;;;;;;;37.15;14.23;;;6.80;99.90;;;;;;5074718;28;20070;-74
2022/01/16 11:28:11;;;;;;;24.48;13.50;;;6.80;99.90;;;;;;5076255;28;20053;-75
2022/01/16 11:30:41;;;;;;;29.40;13.77;;;6.80;99.90;;;;;;5074365;28;20048;-75
2022/01/16 11:33:08;;;;;;;24.38;14.77;;;6.80;99.90;;;;;;5075127;28;20056;-75
2022/01/16 11:35:42;;;;;;;25.83;13.43;;;6.80;99.90;;;;;;5074414;28;20080;-75
2022/01/16 11:38:11;;;;;;;28.08;13.23;;;6.80;99.90;;;;;;5074412;28;20053;-75
2022/01/16 11:40:45;;;;;;;28.25;13.43;;;6.80;99.90;;;;;;5075783;28;20053;-75
2022/01/16 11:43:31;;;;;;;31.30;12.98;;;7.10;99.90;;;;;;5074883;28;20139;-75
2022/01/16 11:46:07;;;;;;;22.05;12.32;;;6.80;99.90;;;;;;5074595;28;20044;-75
2022/01/16 11:48:50;;;;;;;21.58;11.15;;;6.90;99.90;;;;;;5074939;28;20048;-75
2022/01/16 11:52:05;;;;;;;24.48;12.32;;;6.90;99.90;;;;;;5073971;28;20059;-75
2022/01/16 11:54:37;;;;;;;30.25;12.15;;;6.90;99.90;;;;;;5074577;28;20048;-74
2022/01/16 11:57:21;;;;;;;23.73;12.20;;;7.00;99.90;;;;;;5074713;28;20080;-74
2022/01/16 11:59:49;;;;;;;18.00;10.55;;;7.00;99.90;;;;;;5073370;28;20061;-74
2022/01/16 12:02:20;;;;;;;18.70;9.55;;;7.00;99.90;;;;;;5074265;28;20462;-75
2022/01/16 12:04:54;;;;;;;26.13;9.98;;;7.00;99.90;;;;;;5073662;28;20048;-75
2022/01/16 12:07:57;;;;;;;19.65;9.63;;;7.00;99.90;;;;;;5074479;28;20045;-74
2022/01/16 12:10:54;;;;;;;21.30;9.15;;;7.00;99.90;;;;;;5074500;28;20079;-74
2022/01/16 12:13:53;;;;;;;16.13;8.73;;;7.00;99.90;;;;;;5073747;28;20514;-74
2022/01/16 12:16:48;;;;;;;18.33;9.07;;;7.00;99.90;;;;;;5074285;28;20500;-74
2022/01/16 12:19:52;;;;;;;16.85;7.93;;;7.00;99.90;;;;;;5072685;28;20048;-74
2022/01/16 12:22:41;;;;;;;18.70;8.68;;;7.00;99.90;;;;;;5074217;28;20060;-74
2022/01/16 12:25:10;;;;;;;16.25;8.07;;;7.00;99.90;;;;;;5073731;28;20044;-74
2022/01/16 12:27:47;;;;;;;12.85;7.82;;;7.00;99.90;;;;;;5073643;28;20106;-75
2022/01/16 12:30:38;;;;;;;18.17;8.02;;;7.00;99.90;;;;;;5074154;28;20055;-75
2022/01/16 12:33:30;;;;;;;14.95;7.65;;;7.10;99.90;;;;;;5073772;28;20048;-74
2022/01/16 12:36:08;;;;;;;17.25;8.65;;;7.00;99.90;;;;;;5063579;28;20110;-74
2022/01/16 12:38:37;;;;;;;18.65;8.10;;;7.00;99.90;;;;;;5079632;28;20055;-73
2022/01/16 12:41:05;;;;;;;15.70;7.13;;;7.00;99.90;;;;;;5078342;28;20106;-74
2022/01/16 12:43:40;;;;;;;13.50;6.72;;;7.10;99.90;;;;;;5074466;28;20109;-75
2022/01/16 12:46:09;;;;;;;14.38;7.55;;;7.10;99.90;;;;;;5074894;28;20040;-74
2022/01/16 12:48:40;;;;;;;14.07;6.75;;;7.10;99.90;;;;;;5078369;28;20064;-74
2022/01/16 12:51:08;;;;;;;14.00;6.75;;;7.10;99.90;;;;;;5096719;28;20116;-74
2022/01/16 12:53:41;;;;;;;18.77;7.45;;;7.10;99.90;;;;;;5098647;28;20029;-74
2022/01/16 12:56:19;;;;;;;13.70;7.18;;;7.10;99.90;;;;;;5098412;28;20112;-76
2022/01/16 12:58:48;;;;;;;15.27;7.22;;;7.10;99.90;;;;;;5092471;28;20045;-74
2022/01/16 13:01:15;;;;;;;14.50;6.30;;;7.10;99.90;;;;;;5089002;28;20470;-74
2022/01/16 13:03:43;;;;;;;16.88;6.63;;;7.10;99.90;;;;;;5090731;28;20464;-73
2022/01/16 13:06:32;;;;;;;13.68;7.25;;;7.10;99.90;;;;;;5092784;28;20084;-73
2022/01/16 13:09:03;;;;;;;15.27;6.25;;;7.10;99.90;;;;;;5081352;28;20052;-74
2022/01/16 13:11:33;;;;;;;19.50;7.32;;;7.10;99.90;;;;;;5073097;28;20049;-74
2022/01/16 13:14:02;;;;;;;16.33;7.67;;;7.00;99.90;;;;;;5073113;28;20056;-74
2022/01/16 13:16:31;;;;;;;13.60;7.43;;;7.00;99.90;;;;;;5072157;28;20040;-74
2022/01/16 13:19:04;;;;;;;15.43;7.50;;;7.00;99.90;;;;;;5072793;28;20496;-75
2022/01/16 13:21:58;;;;;;;17.35;6.72;;;7.10;99.90;;;;;;5072913;28;20048;-75
2022/01/16 13:24:41;;;;;;;14.95;7.20;;;7.00;99.90;;;;;;5072897;28;20060;-74
2022/01/16 13:27:11;;;;;;;16.30;7.22;;;7.00;99.90;;;;;;5069587;28;20089;-74
2022/01/16 13:29:41;;;;;;;17.05;7.35;;;7.00;99.90;;;;;;5073690;28;20079;-74
2022/01/16 13:32:10;;;;;;;15.38;7.40;;;7.00;99.90;;;;;;5073435;28;20052;-74